createdAt,value
2023-03-03T00:00:15.098Z,78.00
2023-03-03T00:02:42.642Z,77.92
2023-03-03T00:05:10.653Z,77.95
2023-03-03T00:07:37.654Z,78.17
2023-03-03T00:10:06.213Z,77.85
2023-03-03T00:12:35.981Z,77.93
2023-03-03T00:15:13.227Z,78.11
2023-03-03T00:17:40.378Z,77.91
2023-03-03T00:20:30.821Z,78.05
2023-03-03T00:23:21.695Z,78.12
2023-03-03T00:25:52.011Z,78.09
2023-03-03T00:28:30.970Z,78.10
2023-03-03T00:31:03.518Z,77.99
2023-03-03T00:33:35.175Z,77.93
2023-03-03T00:36:32.890Z,78.03
2023-03-03T00:39:39.182Z,78.14
2023-03-03T00:42:17.107Z,78.01
2023-03-03T00:44:56.834Z,77.90
2023-03-03T00:47:35.930Z,77.95
2023-03-03T00:50:06.058Z,78.01
2023-03-03T00:52:45.003Z,77.91
2023-03-03T00:55:12.774Z,77.96
2023-03-03T00:57:39.767Z,77.89
2023-03-03T01:00:15.327Z,77.83
2023-03-03T01:02:42.429Z,77.92
2023-03-03T01:05:13.061Z,77.98
2023-03-03T01:07:40.390Z,77.99
2023-03-03T01:10:07.988Z,77.94
2023-03-03T01:12:35.210Z,77.95
2023-03-03T01:15:02.693Z,77.95
2023-03-03T01:17:29.765Z,77.95
2023-03-03T01:19:57.351Z,77.95
2023-03-03T01:22:25.141Z,77.94
2023-03-03T01:24:52.102Z,77.79
2023-03-03T01:27:19.265Z,77.88
2023-03-03T01:29:46.226Z,77.60
2023-03-03T01:32:13.475Z,77.65
2023-03-03T01:34:41.573Z,77.71
2023-03-03T01:37:08.850Z,77.85
2023-03-03T01:39:36.031Z,77.54
2023-03-03T01:42:03.887Z,77.41
2023-03-03T01:44:31.154Z,77.44
2023-03-03T01:47:10.205Z,77.26
2023-03-03T01:49:56.477Z,77.44
2023-03-03T01:52:29.965Z,77.32
2023-03-03T01:55:05.442Z,77.46
2023-03-03T01:57:37.190Z,77.35
2023-03-03T02:00:07.332Z,77.45
2023-03-03T02:02:41.355Z,77.44
2023-03-03T02:05:09.477Z,77.56
2023-03-03T02:07:37.560Z,77.69
2023-03-03T02:10:12.608Z,77.62
2023-03-03T02:12:52.213Z,77.70
2023-03-03T02:15:29.224Z,77.54
2023-03-03T02:18:02.134Z,77.56
2023-03-03T02:21:07.030Z,77.62
2023-03-03T02:23:39.752Z,77.53
2023-03-03T02:26:10.993Z,77.66
2023-03-03T02:28:40.055Z,77.73
2023-03-03T02:31:14.602Z,77.53
2023-03-03T02:33:45.928Z,77.66
2023-03-03T02:36:29.717Z,77.82
2023-03-03T02:39:20.045Z,77.71
2023-03-03T02:42:02.257Z,77.55
2023-03-03T02:44:37.048Z,77.75
2023-03-03T02:47:04.298Z,77.56
2023-03-03T02:49:34.589Z,77.44
2023-03-03T02:52:04.566Z,77.40
2023-03-03T02:54:32.643Z,77.51
2023-03-03T02:57:02.572Z,77.59
2023-03-03T02:59:29.852Z,77.56
2023-03-03T03:02:00.655Z,77.50
2023-03-03T03:04:28.781Z,77.71
2023-03-03T03:06:56.734Z,77.73
2023-03-03T03:09:28.405Z,77.64
2023-03-03T03:11:56.213Z,77.55
2023-03-03T03:14:26.224Z,77.78
2023-03-03T03:16:55.736Z,77.71
2023-03-03T03:19:23.491Z,77.55
2023-03-03T03:21:51.360Z,77.62
2023-03-03T03:24:19.520Z,77.59
2023-03-03T03:26:53.964Z,77.81
2023-03-03T03:29:22.472Z,77.68
2023-03-03T03:31:49.869Z,77.50
2023-03-03T03:34:16.951Z,77.66
2023-03-03T03:36:47.160Z,77.60
2023-03-03T03:39:16.455Z,77.57
2023-03-03T03:41:46.718Z,77.63
2023-03-03T03:44:13.762Z,77.56
2023-03-03T03:46:40.887Z,77.79
2023-03-03T03:49:08.486Z,77.72
2023-03-03T03:51:38.455Z,77.66
2023-03-03T03:54:06.158Z,77.72
2023-03-03T03:56:35.459Z,77.95
2023-03-03T03:59:03.329Z,77.78
2023-03-03T04:01:30.411Z,77.72
2023-03-03T04:03:58.298Z,77.85
2023-03-03T04:06:25.597Z,77.63
2023-03-03T04:08:54.354Z,77.72
2023-03-03T04:11:24.040Z,77.82
2023-03-03T04:13:51.261Z,77.63
2023-03-03T04:16:18.463Z,77.54
2023-03-03T04:18:46.818Z,77.81
2023-03-03T04:21:16.593Z,77.58
2023-03-03T04:23:45.579Z,77.61
2023-03-03T04:26:13.024Z,77.67
2023-03-03T04:28:41.293Z,77.88
2023-03-03T04:31:08.586Z,77.67
2023-03-03T04:33:36.394Z,77.97
2023-03-03T04:36:05.325Z,77.96
2023-03-03T04:38:33.090Z,77.66
2023-03-03T04:41:00.610Z,77.74
2023-03-03T04:43:31.764Z,77.97
2023-03-03T04:45:59.318Z,77.95
2023-03-03T04:48:26.407Z,78.11
2023-03-03T04:50:56.552Z,77.88
2023-03-03T04:53:23.687Z,77.88
2023-03-03T04:55:53.285Z,77.96
2023-03-03T04:58:22.051Z,77.85
2023-03-03T05:00:57.510Z,77.89
2023-03-03T05:03:27.794Z,77.93
2023-03-03T05:05:55.243Z,78.02
2023-03-03T05:08:22.898Z,78.03
2023-03-03T05:10:54.372Z,78.07
2023-03-03T05:13:21.605Z,78.05
2023-03-03T05:15:53.198Z,77.91
2023-03-03T05:18:20.916Z,77.92
2023-03-03T05:20:48.553Z,77.98
2023-03-03T05:23:15.736Z,78.05
2023-03-03T05:25:43.282Z,78.30
2023-03-03T05:28:11.439Z,78.29
2023-03-03T05:30:38.593Z,78.23
2023-03-03T05:33:06.616Z,78.30
2023-03-03T05:35:34.594Z,78.16
2023-03-03T05:38:03.844Z,78.20
2023-03-03T05:40:32.583Z,78.15
2023-03-03T05:42:59.696Z,78.27
2023-03-03T05:45:27.017Z,78.18
2023-03-03T05:47:54.431Z,78.30
2023-03-03T05:50:23.312Z,78.16
2023-03-03T05:52:52.362Z,78.05
2023-03-03T05:55:20.336Z,78.16
2023-03-03T05:57:47.331Z,78.54
2023-03-03T06:00:15.787Z,78.40
2023-03-03T06:02:43.451Z,78.30
2023-03-03T06:05:12.011Z,78.41
2023-03-03T06:07:39.437Z,78.42
2023-03-03T06:10:07.658Z,78.39
2023-03-03T06:12:39.158Z,78.28
2023-03-03T06:15:07.616Z,78.24
2023-03-03T06:17:35.090Z,78.36
2023-03-03T06:20:03.441Z,78.26
2023-03-03T06:22:31.111Z,78.36
2023-03-03T06:24:58.119Z,78.23
2023-03-03T06:27:25.184Z,78.15
2023-03-03T06:29:52.514Z,78.34
2023-03-03T06:32:19.780Z,78.27
2023-03-03T06:34:47.272Z,78.45
2023-03-03T06:37:14.251Z,78.26
2023-03-03T06:39:41.465Z,78.16
2023-03-03T06:42:09.635Z,78.27
2023-03-03T06:44:38.660Z,78.24
2023-03-03T06:47:06.582Z,78.32
2023-03-03T06:49:33.826Z,78.31
2023-03-03T06:52:10.313Z,78.47
2023-03-03T06:54:37.568Z,78.26
2023-03-03T06:57:31.043Z,78.34
2023-03-03T07:00:14.507Z,78.15
2023-03-03T07:02:41.966Z,78.27
2023-03-03T07:05:19.196Z,78.41
2023-03-03T07:07:47.243Z,78.53
2023-03-03T07:10:21.748Z,78.37
2023-03-03T07:12:48.896Z,78.24
2023-03-03T07:15:25.134Z,78.08
2023-03-03T07:18:00.386Z,78.37
2023-03-03T07:20:37.021Z,78.45
2023-03-03T07:23:24.110Z,78.34
2023-03-03T07:25:52.388Z,78.39
2023-03-03T07:28:29.209Z,78.40
2023-03-03T07:30:58.313Z,78.42
2023-03-03T07:33:32.007Z,78.32
2023-03-03T07:35:59.972Z,78.47
2023-03-03T07:38:39.431Z,78.27
2023-03-03T07:41:14.868Z,78.38
2023-03-03T07:43:57.285Z,78.48
2023-03-03T07:46:35.005Z,78.33
2023-03-03T07:49:29.584Z,78.36
2023-03-03T07:51:58.666Z,78.48
2023-03-03T07:54:44.027Z,78.37
2023-03-03T07:57:23.464Z,78.71
2023-03-03T07:59:53.588Z,78.37
2023-03-03T08:02:58.300Z,78.53
2023-03-03T08:05:30.723Z,78.25
2023-03-03T08:08:32.962Z,77.40
2023-03-03T08:11:02.013Z,78.69
2023-03-03T08:13:33.357Z,78.33
2023-03-03T08:16:11.008Z,78.50
2023-03-03T08:18:47.865Z,78.24
2023-03-03T08:21:23.344Z,78.09
2023-03-03T08:23:51.886Z,78.16
2023-03-03T08:26:23.921Z,78.28
2023-03-03T08:28:52.595Z,78.25
2023-03-03T08:31:39.763Z,78.21
2023-03-03T08:34:08.596Z,78.21
2023-03-03T08:36:38.612Z,78.27
2023-03-03T08:39:06.187Z,78.30
2023-03-03T08:41:33.123Z,78.32
2023-03-03T08:44:00.387Z,78.18
2023-03-03T08:46:28.855Z,78.29
2023-03-03T08:48:56.036Z,78.05
2023-03-03T08:51:23.143Z,78.11
2023-03-03T08:53:50.320Z,78.27
2023-03-03T08:56:19.509Z,78.12
2023-03-03T08:59:03.667Z,78.07
2023-03-03T09:01:32.828Z,77.47
2023-03-03T09:03:59.948Z,78.27
2023-03-03T09:06:29.285Z,77.84
2023-03-03T09:08:56.796Z,77.83
2023-03-03T09:11:28.837Z,77.77
2023-03-03T09:14:17.964Z,77.98
2023-03-03T09:16:59.353Z,77.79
2023-03-03T09:19:33.338Z,77.59
2023-03-03T09:22:24.516Z,77.21
2023-03-03T09:24:55.653Z,77.28
2023-03-03T09:27:30.069Z,76.95
2023-03-03T09:30:02.468Z,76.54
2023-03-03T09:32:39.753Z,76.22
2023-03-03T09:35:25.847Z,76.46
2023-03-03T09:37:53.437Z,76.53
2023-03-03T09:40:48.422Z,75.99
2023-03-03T09:43:42.115Z,76.39
2023-03-03T09:46:23.084Z,76.17
2023-03-03T09:49:04.720Z,76.06
2023-03-03T09:51:52.253Z,75.98
2023-03-03T09:54:42.461Z,75.65
2023-03-03T09:57:25.064Z,75.43
2023-03-03T10:00:27.826Z,75.41
2023-03-03T10:02:56.745Z,75.60
2023-03-03T10:05:30.393Z,75.44
2023-03-03T10:08:17.766Z,75.48
2023-03-03T10:11:02.122Z,74.93
2023-03-03T10:13:43.897Z,75.31
2023-03-03T10:16:50.026Z,75.34
2023-03-03T10:19:46.504Z,75.28
2023-03-03T10:22:20.710Z,75.50
2023-03-03T10:25:03.615Z,75.27
2023-03-03T10:27:59.145Z,75.14
2023-03-03T10:31:05.677Z,75.28
2023-03-03T10:33:46.841Z,75.25
2023-03-03T10:36:17.777Z,75.18
2023-03-03T10:39:03.226Z,74.82
2023-03-03T10:41:33.990Z,75.08
2023-03-03T10:44:07.366Z,75.16
2023-03-03T10:47:09.978Z,75.00
2023-03-03T10:49:54.434Z,74.87
2023-03-03T10:52:21.540Z,74.52
2023-03-03T10:54:54.997Z,74.62
2023-03-03T10:57:30.571Z,74.60
2023-03-03T11:00:16.066Z,74.86
2023-03-03T11:03:18.386Z,74.92
2023-03-03T11:05:51.836Z,74.59
2023-03-03T11:08:45.432Z,74.66
2023-03-03T11:11:53.597Z,74.55
2023-03-03T11:14:55.656Z,74.18
2023-03-03T11:17:56.677Z,74.49
2023-03-03T11:20:35.757Z,74.92
2023-03-03T11:23:17.826Z,74.60
2023-03-03T11:25:50.762Z,74.70
2023-03-03T11:28:39.528Z,74.54
2023-03-03T11:31:15.049Z,74.37
2023-03-03T11:33:55.871Z,74.64
2023-03-03T11:36:39.382Z,74.18
2023-03-03T11:39:14.710Z,74.31
2023-03-03T11:42:01.046Z,73.95
2023-03-03T11:44:51.472Z,74.06
2023-03-03T11:47:31.780Z,74.19
2023-03-03T11:50:11.696Z,74.18
2023-03-03T11:53:03.326Z,74.51
2023-03-03T11:55:37.354Z,74.57
2023-03-03T11:58:17.657Z,74.39
2023-03-03T12:00:51.684Z,74.24
2023-03-03T12:03:26.359Z,74.59
2023-03-03T12:06:14.513Z,74.45
2023-03-03T12:08:57.822Z,74.19
2023-03-03T12:11:38.149Z,74.51
2023-03-03T12:15:04.304Z,74.67
2023-03-03T12:17:56.768Z,74.41
2023-03-03T12:20:59.244Z,74.44
2023-03-03T12:23:59.150Z,73.91
2023-03-03T12:26:53.494Z,73.98
2023-03-03T12:29:59.361Z,74.29
2023-03-03T12:32:35.371Z,74.17
2023-03-03T12:35:35.682Z,74.42
2023-03-03T12:38:08.877Z,73.93
2023-03-03T12:40:52.271Z,74.31
2023-03-03T12:43:46.757Z,74.41
2023-03-03T12:46:52.184Z,74.35
2023-03-03T12:49:20.466Z,74.80
2023-03-03T12:52:41.863Z,73.92
2023-03-03T12:55:18.157Z,74.06
2023-03-03T12:58:00.188Z,73.85
2023-03-03T13:00:55.214Z,74.35
2023-03-03T13:03:54.930Z,73.71
2023-03-03T13:06:51.257Z,73.38
2023-03-03T13:09:24.270Z,74.18
2023-03-03T13:12:23.598Z,73.73
2023-03-03T13:14:55.952Z,73.65
2023-03-03T13:17:41.405Z,73.93
2023-03-03T13:20:43.285Z,73.42
2023-03-03T13:23:38.554Z,73.36
2023-03-03T13:26:43.536Z,73.69
2023-03-03T13:29:28.709Z,73.59
2023-03-03T13:31:59.889Z,73.40
2023-03-03T13:34:35.869Z,73.70
2023-03-03T13:37:27.293Z,73.28
2023-03-03T13:40:01.707Z,73.41
2023-03-03T13:42:41.009Z,73.35
2023-03-03T13:45:19.308Z,73.59
2023-03-03T13:48:02.175Z,74.23
2023-03-03T13:50:41.055Z,73.73
2023-03-03T13:53:32.644Z,73.52
2023-03-03T13:56:24.303Z,74.22
2023-03-03T13:59:10.401Z,73.50
2023-03-03T14:02:01.104Z,73.80
2023-03-03T14:04:52.894Z,74.08
2023-03-03T14:07:45.460Z,73.96
2023-03-03T14:10:26.860Z,73.94
2023-03-03T14:13:13.205Z,73.77
2023-03-03T14:15:49.276Z,73.41
2023-03-03T14:18:16.388Z,72.81
2023-03-03T14:20:56.121Z,73.57
2023-03-03T14:23:32.130Z,73.47
2023-03-03T14:26:07.886Z,73.14
2023-03-03T14:28:47.152Z,73.20
2023-03-03T14:31:24.347Z,73.35
2023-03-03T14:34:23.430Z,73.62
2023-03-03T14:36:55.365Z,73.90
2023-03-03T14:39:36.681Z,73.99
2023-03-03T14:42:34.204Z,74.08
2023-03-03T14:45:04.827Z,73.83
2023-03-03T14:47:36.792Z,74.02
2023-03-03T14:50:38.273Z,74.02
2023-03-03T14:53:22.496Z,73.69
2023-03-03T14:55:54.920Z,74.11
2023-03-03T14:58:28.292Z,73.87
2023-03-03T15:01:23.707Z,74.25
2023-03-03T15:04:01.424Z,74.24
2023-03-03T15:06:32.885Z,74.10
2023-03-03T15:09:26.026Z,74.35
2023-03-03T15:11:55.016Z,74.28
2023-03-03T15:14:31.972Z,74.36
2023-03-03T15:17:19.566Z,74.22
2023-03-03T15:19:46.771Z,74.29
2023-03-03T15:22:13.742Z,74.37
2023-03-03T15:25:25.672Z,74.15
2023-03-03T15:28:24.656Z,73.99
2023-03-03T15:31:22.294Z,74.28
2023-03-03T15:34:14.104Z,74.52
2023-03-03T15:37:10.646Z,74.28
2023-03-03T15:39:56.629Z,74.47
2023-03-03T15:42:39.346Z,74.76
2023-03-03T15:45:26.570Z,74.76
2023-03-03T15:48:02.412Z,74.64
2023-03-03T15:50:51.794Z,74.34
2023-03-03T15:53:34.244Z,74.15
2023-03-03T15:56:12.197Z,74.07
2023-03-03T15:58:57.266Z,74.01
2023-03-03T16:01:33.786Z,74.02
2023-03-03T16:04:26.122Z,73.98
2023-03-03T16:07:11.524Z,74.25
2023-03-03T16:09:57.040Z,74.04
2023-03-03T16:12:33.508Z,74.03
2023-03-03T16:15:23.471Z,74.73
2023-03-03T16:18:03.221Z,73.97
2023-03-03T16:21:02.909Z,73.53
2023-03-03T16:24:22.907Z,73.89
2023-03-03T16:26:53.084Z,73.76
2023-03-03T16:29:35.210Z,73.82
2023-03-03T16:32:23.643Z,74.08
2023-03-03T16:35:02.278Z,74.08
2023-03-03T16:37:40.200Z,74.15
2023-03-03T16:40:33.361Z,74.35
2023-03-03T16:43:33.114Z,74.20
2023-03-03T16:46:11.966Z,74.76
2023-03-03T16:49:14.726Z,74.67
2023-03-03T16:51:58.720Z,74.69
2023-03-03T16:54:54.968Z,74.56
2023-03-03T16:57:44.047Z,74.43
2023-03-03T17:00:30.566Z,74.87
2023-03-03T17:03:23.919Z,74.51
2023-03-03T17:06:04.247Z,74.51
2023-03-03T17:08:44.726Z,74.38
2023-03-03T17:11:32.098Z,74.67
2023-03-03T17:14:13.911Z,74.44
2023-03-03T17:17:03.136Z,74.15
2023-03-03T17:19:44.154Z,73.80
2023-03-03T17:22:46.510Z,73.51
2023-03-03T17:25:23.550Z,73.83
2023-03-03T17:28:06.250Z,73.78
2023-03-03T17:31:04.080Z,73.84
2023-03-03T17:33:43.643Z,74.06
2023-03-03T17:36:49.031Z,74.31
2023-03-03T17:39:27.809Z,74.33
2023-03-03T17:42:05.160Z,73.71
2023-03-03T17:45:11.977Z,74.12
2023-03-03T17:48:07.779Z,74.18
2023-03-03T17:51:00.074Z,74.09
2023-03-03T17:53:33.197Z,74.21
2023-03-03T17:56:07.616Z,74.20
2023-03-03T17:59:17.990Z,74.18
2023-03-03T18:02:15.910Z,74.14
2023-03-03T18:05:03.845Z,74.01
2023-03-03T18:08:04.658Z,73.90
2023-03-03T18:11:07.685Z,74.31
2023-03-03T18:14:11.805Z,74.33
2023-03-03T18:16:43.135Z,74.33
2023-03-03T18:19:32.368Z,74.46
2023-03-03T18:22:11.544Z,74.22
2023-03-03T18:24:53.419Z,74.55
2023-03-03T18:27:42.897Z,74.51
2023-03-03T18:30:20.679Z,74.63
2023-03-03T18:33:03.499Z,74.59
2023-03-03T18:35:38.661Z,74.21
2023-03-03T18:38:18.176Z,74.55
2023-03-03T18:40:58.929Z,74.50
2023-03-03T18:43:44.195Z,74.51
2023-03-03T18:46:20.491Z,74.26
2023-03-03T18:49:04.856Z,74.12
2023-03-03T18:51:35.332Z,74.46
2023-03-03T18:54:17.429Z,74.58
2023-03-03T18:57:05.266Z,74.66
2023-03-03T18:59:34.728Z,74.92
2023-03-03T19:02:13.960Z,74.74
2023-03-03T19:04:45.751Z,74.38
2023-03-03T19:07:18.819Z,74.44
2023-03-03T19:10:02.814Z,74.05
2023-03-03T19:12:57.829Z,74.38
2023-03-03T19:15:35.759Z,74.11
2023-03-03T19:18:26.716Z,74.18
2023-03-03T19:21:00.650Z,74.35
2023-03-03T19:23:42.916Z,74.68
2023-03-03T19:26:25.419Z,74.51
2023-03-03T19:28:58.615Z,74.62
2023-03-03T19:31:41.704Z,74.60
2023-03-03T19:34:11.728Z,74.99
2023-03-03T19:36:44.372Z,74.76
2023-03-03T19:39:28.349Z,74.89
2023-03-03T19:42:23.599Z,74.83
2023-03-03T19:45:08.814Z,74.85
2023-03-03T19:47:59.938Z,75.12
2023-03-03T19:50:35.655Z,75.06
2023-03-03T19:53:32.236Z,75.22
2023-03-03T19:56:20.787Z,75.35
2023-03-03T19:59:17.481Z,75.20
2023-03-03T20:02:14.354Z,75.34
2023-03-03T20:04:59.784Z,75.20
2023-03-03T20:07:49.415Z,75.12
2023-03-03T20:10:17.029Z,75.25
2023-03-03T20:13:00.829Z,75.30
2023-03-03T20:15:37.351Z,75.32
2023-03-03T20:18:36.654Z,75.50
2023-03-03T20:21:16.562Z,75.73
2023-03-03T20:24:04.861Z,75.51
2023-03-03T20:26:55.383Z,75.56
2023-03-03T20:30:02.457Z,75.60
2023-03-03T20:33:00.521Z,75.50
2023-03-03T20:35:46.316Z,75.43
2023-03-03T20:38:28.332Z,75.22
2023-03-03T20:41:08.888Z,75.39
2023-03-03T20:44:03.824Z,75.50
2023-03-03T20:46:43.627Z,75.34
2023-03-03T20:49:35.504Z,75.37
2023-03-03T20:52:11.020Z,75.63
2023-03-03T20:55:03.062Z,75.50
2023-03-03T20:57:59.982Z,75.76
2023-03-03T21:00:51.695Z,75.71
2023-03-03T21:03:31.267Z,75.65
2023-03-03T21:06:15.606Z,75.71
2023-03-03T21:08:53.609Z,75.88
2023-03-03T21:11:42.670Z,75.89
2023-03-03T21:14:28.506Z,76.12
2023-03-03T21:17:02.659Z,75.99
2023-03-03T21:19:32.253Z,76.28
2023-03-03T21:22:02.238Z,76.47
2023-03-03T21:24:48.156Z,76.31
2023-03-03T21:27:27.824Z,76.27
2023-03-03T21:30:14.436Z,76.35
2023-03-03T21:32:48.780Z,76.38
2023-03-03T21:35:19.735Z,76.53
2023-03-03T21:37:48.695Z,76.72
2023-03-03T21:40:27.938Z,76.66
2023-03-03T21:42:58.261Z,76.72
2023-03-03T21:45:26.715Z,76.92
2023-03-03T21:48:00.255Z,76.95
2023-03-03T21:50:32.344Z,76.95
2023-03-03T21:52:59.429Z,76.90
2023-03-03T21:55:26.883Z,77.05
2023-03-03T21:57:54.005Z,77.02
2023-03-03T22:00:21.297Z,77.09
2023-03-03T22:02:48.410Z,77.05
2023-03-03T22:05:15.455Z,77.11
2023-03-03T22:07:42.836Z,77.19
2023-03-03T22:10:10.977Z,77.26
2023-03-03T22:12:38.159Z,77.28
2023-03-03T22:15:05.858Z,77.23
2023-03-03T22:17:33.203Z,77.41
2023-03-03T22:20:00.360Z,77.24
2023-03-03T22:22:27.992Z,77.27
2023-03-03T22:24:55.080Z,77.34
2023-03-03T22:27:22.470Z,77.47
2023-03-03T22:29:49.839Z,77.40
2023-03-03T22:32:16.994Z,77.46
2023-03-03T22:34:44.591Z,77.32
2023-03-03T22:37:11.680Z,77.46
2023-03-03T22:39:38.786Z,77.57
2023-03-03T22:42:05.977Z,77.53
2023-03-03T22:44:32.989Z,77.44
2023-03-03T22:47:00.215Z,77.39
2023-03-03T22:49:27.285Z,77.53
2023-03-03T22:51:54.740Z,77.43
2023-03-03T22:54:21.885Z,77.51
2023-03-03T22:56:49.203Z,77.69
2023-03-03T22:59:16.183Z,77.69
2023-03-03T23:01:43.261Z,77.69
2023-03-03T23:04:10.338Z,77.67
2023-03-03T23:06:37.565Z,77.45
2023-03-03T23:09:04.801Z,77.53
2023-03-03T23:11:31.793Z,77.37
2023-03-03T23:13:58.882Z,77.37
2023-03-03T23:16:25.969Z,77.28
2023-03-03T23:18:52.987Z,77.09
2023-03-03T23:21:20.281Z,77.20
2023-03-03T23:23:47.266Z,77.23
2023-03-03T23:26:14.648Z,77.27
2023-03-03T23:28:41.829Z,77.18
2023-03-03T23:31:08.883Z,77.31
2023-03-03T23:33:36.038Z,77.19
2023-03-03T23:36:03.427Z,77.11
2023-03-03T23:38:30.539Z,77.29
2023-03-03T23:40:57.707Z,77.21
2023-03-03T23:43:24.691Z,77.18
2023-03-03T23:45:51.679Z,77.29
2023-03-03T23:48:20.918Z,77.22
2023-03-03T23:50:48.704Z,77.39
2023-03-03T23:53:15.691Z,77.35
2023-03-03T23:55:43.438Z,77.26
2023-03-03T23:58:10.549Z,77.22
